createdAt,value
2023-02-04T00:03:33.659Z,98919.09
2023-02-04T00:08:37.650Z,98919.97
2023-02-04T00:13:40.508Z,98911.31
2023-02-04T00:18:43.104Z,98927.69
2023-02-04T00:23:45.642Z,98909.81
2023-02-04T00:28:48.460Z,98929.56
2023-02-04T00:33:52.535Z,98926.94
2023-02-04T00:38:55.356Z,98918.25
2023-02-04T00:43:57.922Z,98943.25
2023-02-04T00:49:00.553Z,98944.09
2023-02-04T00:54:03.064Z,98953.19
2023-02-04T00:59:05.637Z,98946.19
2023-02-04T01:04:08.326Z,98957.94
2023-02-04T01:09:11.823Z,98939.31
2023-02-04T01:14:14.386Z,98952.91
2023-02-04T01:19:17.453Z,98953.47
2023-02-04T01:24:19.979Z,98953.31
2023-02-04T01:29:41.305Z,98969.91
2023-02-04T01:34:43.866Z,98969.16
2023-02-04T01:39:46.701Z,98976.78
2023-02-04T01:44:49.792Z,98972.41
2023-02-04T01:49:54.762Z,98980.97
2023-02-04T01:54:57.289Z,98991.97
2023-02-04T01:59:59.839Z,98992.03
2023-02-04T02:05:03.249Z,99001.16
2023-02-04T02:10:08.055Z,99013.19
2023-02-04T02:15:13.905Z,99004.63
2023-02-04T02:20:18.011Z,99010.59
2023-02-04T02:25:20.648Z,99012.81
2023-02-04T02:30:23.699Z,99017.94
2023-02-04T02:35:26.359Z,99000.81
2023-02-04T02:40:29.390Z,99025.06
2023-02-04T02:45:34.294Z,99015.50
2023-02-04T02:50:37.304Z,99000.81
2023-02-04T02:55:40.610Z,99028.66
2023-02-04T03:00:44.451Z,99054.00
2023-02-04T03:05:52.974Z,99032.97
2023-02-04T03:10:56.757Z,99058.03
2023-02-04T03:16:00.581Z,99036.72
2023-02-04T03:21:05.938Z,99050.22
2023-02-04T03:26:08.663Z,99036.53
2023-02-04T03:31:11.494Z,99060.38
2023-02-04T03:36:14.159Z,99072.81
2023-02-04T03:41:16.896Z,99069.63
2023-02-04T03:46:19.583Z,99080.06
2023-02-04T03:51:22.338Z,99083.47
2023-02-04T03:56:25.109Z,99057.59
2023-02-04T04:01:27.701Z,99093.47
2023-02-04T04:06:31.581Z,99093.66
2023-02-04T04:11:34.121Z,99099.84
2023-02-04T04:16:36.742Z,99105.19
2023-02-04T04:21:39.346Z,99111.25
2023-02-04T04:26:41.880Z,99106.22
2023-02-04T04:31:45.163Z,99119.53
2023-02-04T04:36:47.771Z,99081.72
2023-02-04T04:41:50.304Z,99125.41
2023-02-04T04:46:52.924Z,99120.66
2023-02-04T04:51:55.645Z,99094.63
2023-02-04T04:56:58.196Z,99143.25
2023-02-04T05:02:00.756Z,99142.72
2023-02-04T05:07:03.430Z,99146.34
2023-02-04T05:12:06.352Z,99149.88
2023-02-04T05:17:08.936Z,99157.47
2023-02-04T05:22:11.611Z,99158.63
2023-02-04T05:27:14.471Z,99167.56
2023-02-04T05:32:17.003Z,99184.59
2023-02-04T05:37:21.129Z,99181.56
2023-02-04T05:42:23.770Z,99180.09
2023-02-04T05:47:26.324Z,99187.56
2023-02-04T05:52:28.970Z,99191.78
2023-02-04T05:57:31.625Z,99196.28
2023-02-04T06:02:34.218Z,99195.91
2023-02-04T06:07:36.864Z,99209.78
2023-02-04T06:12:39.499Z,99220.63
2023-02-04T06:17:42.102Z,99222.31
2023-02-04T06:22:44.702Z,99239.63
2023-02-04T06:27:47.449Z,99235.38
2023-02-04T06:32:50.035Z,99256.88
2023-02-04T06:37:52.559Z,99255.38
2023-02-04T06:42:55.142Z,99271.72
2023-02-04T06:47:57.700Z,99270.41
2023-02-04T06:53:00.368Z,99279.06
2023-02-04T06:58:03.015Z,99275.16
2023-02-04T07:03:07.522Z,99257.28
2023-02-04T07:08:10.097Z,99279.81
2023-02-04T07:13:12.730Z,99278.16
2023-02-04T07:18:15.458Z,99296.75
2023-02-04T07:23:18.018Z,99298.78
2023-02-04T07:28:20.592Z,99303.41
2023-02-04T07:33:23.690Z,99301.09
2023-02-04T07:38:26.232Z,99301.50
2023-02-04T07:43:28.706Z,99312.78
2023-02-04T07:48:31.298Z,99302.75
2023-02-04T07:53:33.926Z,99315.63
2023-02-04T07:58:36.716Z,99322.06
2023-02-04T08:03:41.627Z,99329.03
2023-02-04T08:08:44.484Z,99334.13
2023-02-04T08:13:47.111Z,99334.25
2023-02-04T08:18:49.668Z,99305.38
2023-02-04T08:23:52.454Z,99330.94
2023-02-04T08:28:55.067Z,99340.06
2023-02-04T08:33:58.072Z,99339.25
2023-02-04T08:39:00.817Z,99340.81
2023-02-04T08:44:03.486Z,99355.91
2023-02-04T08:49:06.111Z,99347.19
2023-02-04T08:54:08.699Z,99345.59
2023-02-04T08:59:12.120Z,99320.97
2023-02-04T09:04:15.217Z,99354.56
2023-02-04T09:09:18.867Z,99362.38
2023-02-04T09:14:22.224Z,99342.53
2023-02-04T09:19:26.167Z,99369.09
2023-02-04T09:24:28.892Z,99355.81
2023-02-04T09:29:31.548Z,99378.16
2023-02-04T09:34:34.132Z,99377.28
2023-02-04T09:39:36.705Z,99385.78
2023-02-04T09:44:39.375Z,99390.13
2023-02-04T09:49:47.012Z,99392.84
2023-02-04T09:54:49.645Z,99388.72
2023-02-04T09:59:56.694Z,99386.03
2023-02-04T10:04:59.213Z,99404.06
2023-02-04T10:10:01.862Z,99397.03
2023-02-04T10:15:11.137Z,99405.72
2023-02-04T10:20:22.380Z,99412.91
2023-02-04T10:25:26.400Z,99410.25
2023-02-04T10:30:35.985Z,99396.59
2023-02-04T10:35:48.233Z,99419.00
2023-02-04T10:41:05.917Z,99394.41
2023-02-04T10:46:08.729Z,99396.84
2023-02-04T10:51:13.437Z,99433.44
2023-02-04T10:56:21.831Z,99449.97
2023-02-04T11:01:28.897Z,99420.41
2023-02-04T11:06:31.779Z,99439.53
2023-02-04T11:11:34.771Z,99452.31
2023-02-04T11:16:48.872Z,99449.41
2023-02-04T11:21:51.661Z,99455.91
2023-02-04T11:27:09.172Z,99443.38
2023-02-04T11:32:38.100Z,99461.88
2023-02-04T11:37:43.470Z,99464.59
2023-02-04T11:42:46.356Z,99472.28
2023-02-04T11:47:50.843Z,99478.47
2023-02-04T11:52:55.062Z,99481.75
2023-02-04T11:57:58.537Z,99490.38
2023-02-04T12:03:06.792Z,99487.16
2023-02-04T12:08:33.772Z,99496.50
2023-02-04T12:13:50.050Z,99501.22
2023-02-04T12:18:52.628Z,99502.16
2023-02-04T12:23:55.562Z,99512.06
2023-02-04T12:29:01.658Z,99517.28
2023-02-04T12:34:04.400Z,99518.84
2023-02-04T12:39:06.986Z,99533.19
2023-02-04T12:44:10.986Z,99535.41
2023-02-04T12:49:13.561Z,99541.28
2023-02-04T12:54:16.453Z,99540.03
2023-02-04T12:59:19.337Z,99555.28
2023-02-04T13:04:24.649Z,99556.16
2023-02-04T13:09:27.878Z,99549.50
2023-02-04T13:14:30.659Z,99551.13
2023-02-04T13:19:36.614Z,99561.94
2023-02-04T13:24:42.086Z,99566.41
2023-02-04T13:29:45.697Z,99569.38
2023-02-04T13:34:48.601Z,99578.63
2023-02-04T13:39:51.615Z,99573.63
2023-02-04T13:44:55.564Z,99582.59
2023-02-04T13:50:01.395Z,99591.22
2023-02-04T13:55:06.401Z,99586.03
2023-02-04T14:00:09.884Z,99589.19
2023-02-04T14:05:16.137Z,99611.22
2023-02-04T14:10:18.922Z,99617.38
2023-02-04T14:15:21.663Z,99616.56
2023-02-04T14:20:24.251Z,99630.69
2023-02-04T14:25:26.901Z,99635.16
2023-02-04T14:30:30.447Z,99639.03
2023-02-04T14:35:33.157Z,99646.09
2023-02-04T14:40:35.775Z,99642.34
2023-02-04T14:45:40.184Z,99642.00
2023-02-04T14:50:42.775Z,99657.22
2023-02-04T14:55:45.978Z,99655.59
2023-02-04T15:00:48.498Z,99670.69
2023-02-04T15:05:51.231Z,99679.97
2023-02-04T15:10:53.885Z,99679.72
2023-02-04T15:15:56.842Z,99697.75
2023-02-04T15:20:59.494Z,99686.66
2023-02-04T15:26:02.327Z,99693.63
2023-02-04T15:31:05.533Z,99702.78
2023-02-04T15:36:08.465Z,99693.72
2023-02-04T15:41:11.129Z,99710.19
2023-02-04T15:46:13.753Z,99717.88
2023-02-04T15:51:16.486Z,99701.28
2023-02-04T15:56:21.322Z,99710.88
2023-02-04T16:01:23.961Z,99728.06
2023-02-04T16:06:26.760Z,99739.13
2023-02-04T16:11:29.388Z,99728.69
2023-02-04T16:16:34.403Z,99739.00
2023-02-04T16:21:36.967Z,99744.66
2023-02-04T16:26:39.532Z,99749.44
2023-02-04T16:31:42.233Z,99757.34
2023-02-04T16:36:44.799Z,99773.69
2023-02-04T16:41:47.362Z,99771.66
2023-02-04T16:46:50.879Z,99738.44
2023-02-04T16:51:53.710Z,99759.66
2023-02-04T16:56:57.007Z,99782.91
2023-02-04T17:02:00.817Z,99788.09
2023-02-04T17:07:04.324Z,99773.06
2023-02-04T17:12:07.356Z,99786.69
2023-02-04T17:17:15.519Z,99802.69
2023-02-04T17:22:18.748Z,99812.19
2023-02-04T17:27:23.952Z,99820.59
2023-02-04T17:32:28.107Z,99824.78
2023-02-04T17:37:33.421Z,99827.88
2023-02-04T17:42:36.976Z,99820.59
2023-02-04T17:47:40.228Z,99824.41
2023-02-04T17:52:42.963Z,99818.13
2023-02-04T17:57:45.670Z,99840.44
2023-02-04T18:02:50.124Z,99845.56
2023-02-04T18:08:11.544Z,99835.66
2023-02-04T18:13:25.638Z,99826.66
2023-02-04T18:18:39.959Z,99857.25
2023-02-04T18:23:44.358Z,99854.81
2023-02-04T18:28:50.946Z,99860.16
2023-02-04T18:33:57.834Z,99863.00
2023-02-04T18:39:03.817Z,99870.31
2023-02-04T18:44:46.646Z,99880.25
2023-02-04T18:49:49.334Z,99886.84
2023-02-04T18:54:56.479Z,99886.53
2023-02-04T19:00:14.650Z,99898.72
2023-02-04T19:05:34.501Z,99901.28
2023-02-04T19:10:39.619Z,99911.47
2023-02-04T19:15:42.454Z,99871.56
2023-02-04T19:20:50.223Z,99903.28
2023-02-04T19:25:53.179Z,99912.34
2023-02-04T19:31:10.568Z,99888.75
2023-02-04T19:36:23.666Z,99929.91
2023-02-04T19:41:38.592Z,99926.34
2023-02-04T19:46:42.507Z,99925.88
2023-02-04T19:51:48.733Z,99923.22
2023-02-04T19:56:52.429Z,99938.72
2023-02-04T20:02:07.420Z,99937.09
2023-02-04T20:07:22.031Z,99943.44
2023-02-04T20:12:25.410Z,99948.88
2023-02-04T20:17:38.980Z,99960.50
2023-02-04T20:22:50.167Z,99955.25
2023-02-04T20:27:57.227Z,99943.38
2023-02-04T20:33:30.843Z,99972.50
2023-02-04T20:38:33.447Z,99969.53
2023-02-04T20:43:35.999Z,99970.34
2023-02-04T20:48:38.741Z,99984.28
2023-02-04T20:53:57.883Z,99989.13
2023-02-04T20:59:12.592Z,99980.75
2023-02-04T21:04:36.829Z,99974.66
2023-02-04T21:09:40.235Z,99971.41
2023-02-04T21:14:43.039Z,99983.09
2023-02-04T21:19:45.705Z,99996.44
2023-02-04T21:24:48.908Z,100003.19
2023-02-04T21:29:53.882Z,99996.47
2023-02-04T21:34:56.503Z,99985.28
2023-02-04T21:39:59.078Z,100017.78
2023-02-04T21:45:01.624Z,100027.38
2023-02-04T21:50:04.628Z,100025.72
2023-02-04T21:55:08.270Z,99988.69
2023-02-04T22:00:11.553Z,100050.97
2023-02-04T22:05:14.209Z,100052.31
2023-02-04T22:10:23.899Z,100056.78
2023-02-04T22:15:28.182Z,100047.19
2023-02-04T22:20:31.141Z,100063.69
2023-02-04T22:25:33.962Z,100066.97
2023-02-04T22:30:37.922Z,100065.34
2023-02-04T22:35:40.711Z,100080.78
2023-02-04T22:40:43.423Z,100088.03
2023-02-04T22:45:46.028Z,100059.63
2023-02-04T22:50:48.708Z,100074.16
2023-02-04T22:55:51.268Z,100097.44
2023-02-04T23:00:54.077Z,100102.84
2023-02-04T23:05:56.740Z,100100.19
2023-02-04T23:10:59.519Z,100095.94
2023-02-04T23:16:02.475Z,100105.19
2023-02-04T23:21:05.513Z,100107.84
2023-02-04T23:26:08.401Z,100112.13
2023-02-04T23:31:11.353Z,100091.56
2023-02-04T23:36:14.114Z,100106.97
2023-02-04T23:41:17.219Z,100102.84
2023-02-04T23:46:19.926Z,100127.56
2023-02-04T23:51:22.477Z,100131.03
2023-02-04T23:56:25.092Z,100129.09
